Time;durP1;ratioP1;P1;durP2;ratioP2;P2;SDS_P1;SDS_P2;PMS_P1;PMS_P2;Temp;Humidity;BMP_temperature;BMP_pressure;BME280_temperature;BME280_humidity;BME280_pressure;Samples;Min_cycle;Max_cycle;Signal;HPM_P1;HPM_P2
2022/10/06 00:02:56;;;;;;;155.10;59.05;;;7.40;99.90;;;;;;21057625;28;20040;-48
2022/10/06 00:12:58;;;;;;;131.57;52.40;;;7.60;99.90;;;;;;21057438;28;20485;-52
2022/10/06 00:23:01;;;;;;;86.32;40.13;;;7.60;99.90;;;;;;21062344;28;20058;-54
2022/10/06 00:33:03;;;;;;;89.15;41.38;;;7.90;99.90;;;;;;21055195;28;20039;-50
2022/10/06 00:43:26;;;;;;;63.85;33.03;;;7.90;99.90;;;;;;21056064;28;20044;-48
2022/10/06 00:53:33;;;;;;;84.45;36.20;;;7.70;99.90;;;;;;21054169;28;20085;-51
2022/10/06 01:03:50;;;;;;;55.60;30.65;;;7.60;99.90;;;;;;21122619;28;20443;-50
2022/10/06 01:13:54;;;;;;;55.78;29.02;;;7.70;99.90;;;;;;21053773;28;20050;-52
2022/10/06 01:23:57;;;;;;;69.20;33.97;;;7.60;99.90;;;;;;21053084;28;20484;-50
2022/10/06 01:34:01;;;;;;;71.05;34.05;;;7.50;99.90;;;;;;21113140;28;20028;-51
2022/10/06 01:44:04;;;;;;;47.50;25.73;;;7.90;99.90;;;;;;21154446;28;20040;-49
2022/10/06 01:54:07;;;;;;;57.10;29.70;;;7.60;99.90;;;;;;21152061;28;20364;-49
2022/10/06 02:04:10;;;;;;;56.67;30.40;;;7.40;99.90;;;;;;21136979;28;20081;-49
2022/10/06 02:14:13;;;;;;;57.10;28.58;;;7.40;99.90;;;;;;21051059;28;20032;-49
2022/10/06 02:24:15;;;;;;;56.58;28.70;;;7.10;99.90;;;;;;21106156;28;20077;-51
2022/10/06 02:34:19;;;;;;;47.80;25.63;;;7.00;99.90;;;;;;21133207;28;20101;-54
2022/10/06 02:44:24;;;;;;;77.07;33.35;;;7.00;99.90;;;;;;21063795;28;20412;-49
2022/10/06 02:54:29;;;;;;;56.10;28.17;;;7.00;99.90;;;;;;21046356;28;20078;-50
2022/10/06 03:04:33;;;;;;;58.53;28.42;;;7.30;99.90;;;;;;21031605;28;20028;-50
2022/10/06 03:14:36;;;;;;;24.33;15.32;;;7.30;99.90;;;;;;20961722;28;20417;-48
2022/10/06 03:24:40;;;;;;;22.92;15.10;;;7.10;99.90;;;;;;21038080;28;20036;-50
2022/10/06 03:34:43;;;;;;;24.05;15.05;;;7.00;99.90;;;;;;21060034;28;20065;-49
2022/10/06 03:44:49;;;;;;;28.33;16.98;;;7.10;99.90;;;;;;21060171;28;20484;-51
2022/10/06 03:54:53;;;;;;;32.00;17.45;;;7.20;99.90;;;;;;21058172;28;20028;-53
2022/10/06 04:04:57;;;;;;;22.67;13.65;;;7.30;99.90;;;;;;21057072;28;20058;-51
2022/10/06 04:15:00;;;;;;;17.67;10.68;;;7.30;99.90;;;;;;21056664;28;20366;-53
2022/10/06 04:25:06;;;;;;;14.75;8.10;;;7.40;99.90;;;;;;21062141;28;20036;-51
2022/10/06 04:35:09;;;;;;;13.18;8.00;;;7.50;99.90;;;;;;21068267;28;20032;-49
2022/10/06 04:45:12;;;;;;;8.95;6.15;;;7.40;99.90;;;;;;21139290;28;20036;-51
2022/10/06 04:55:16;;;;;;;7.90;5.60;;;7.20;99.90;;;;;;21137858;28;20096;-52
2022/10/06 05:05:20;;;;;;;7.00;5.05;;;7.20;99.90;;;;;;21138109;28;20089;-49
2022/10/06 05:15:24;;;;;;;6.82;4.20;;;7.50;99.90;;;;;;21137237;28;20032;-51
2022/10/06 05:25:26;;;;;;;8.48;5.75;;;7.70;99.90;;;;;;21120160;28;20039;-52
2022/10/06 05:35:29;;;;;;;12.10;7.57;;;7.50;99.90;;;;;;21117204;28;20040;-50
2022/10/06 05:45:33;;;;;;;12.57;8.73;;;7.40;99.90;;;;;;21136545;28;20076;-49
2022/10/06 05:55:37;;;;;;;15.85;9.88;;;7.40;99.90;;;;;;21135655;28;20188;-51
2022/10/06 06:05:41;;;;;;;21.27;13.60;;;8.00;99.90;;;;;;21118433;28;20480;-51
2022/10/06 06:16:00;;;;;;;23.15;14.13;;;7.90;99.90;;;;;;21118568;28;20393;-49
2022/10/06 06:26:09;;;;;;;35.22;21.45;;;7.90;99.90;;;;;;21148581;28;20036;-49
2022/10/06 06:36:18;;;;;;;33.22;19.17;;;8.10;99.90;;;;;;21149085;28;20040;-50
2022/10/06 06:46:23;;;;;;;30.98;18.92;;;8.40;99.90;;;;;;21131410;28;20032;-52
2022/10/06 06:56:37;;;;;;;25.38;16.20;;;8.60;99.90;;;;;;21127447;28;20037;-51
2022/10/06 07:06:56;;;;;;;33.10;21.13;;;9.00;99.90;;;;;;21112406;28;20070;-51
2022/10/06 07:27:25;;;;;;;35.42;24.83;;;10.60;99.90;;;;;;21144617;28;20023;-50
2022/10/06 07:37:28;;;;;;;35.03;25.00;;;11.70;99.90;;;;;;21143568;28;20104;-53
2022/10/06 07:47:33;;;;;;;30.15;20.92;;;12.80;99.90;;;;;;21142922;28;20484;-50
2022/10/06 07:57:35;;;;;;;23.83;18.33;;;13.70;99.90;;;;;;21143793;28;20055;-48
2022/10/06 08:07:40;;;;;;;23.33;18.73;;;14.30;99.90;;;;;;21142409;28;20031;-46
2022/10/06 08:17:44;;;;;;;23.50;17.05;;;14.90;99.90;;;;;;21117725;28;20044;-57
2022/10/06 08:27:47;;;;;;;21.02;17.80;;;15.50;99.90;;;;;;21140485;28;20445;-49
2022/10/06 08:37:49;;;;;;;22.42;17.98;;;16.00;99.90;;;;;;21122530;28;20042;-51
2022/10/06 08:48:09;;;;;;;24.23;18.63;;;16.30;99.90;;;;;;21137669;28;20100;-49
2022/10/06 08:58:49;;;;;;;24.63;18.70;;;16.70;99.90;;;;;;21156524;28;20039;-57
2022/10/06 09:09:05;;;;;;;22.58;18.35;;;17.00;99.90;;;;;;21137260;28;20036;-52
2022/10/06 09:19:12;;;;;;;20.30;17.63;;;17.30;99.90;;;;;;21136766;28;20024;-50
2022/10/06 09:29:16;;;;;;;20.85;17.63;;;17.20;99.90;;;;;;21133724;28;20054;-49
2022/10/06 09:39:26;;;;;;;20.38;17.05;;;17.50;99.90;;;;;;21119769;28;20077;-48
2022/10/06 09:49:30;;;;;;;20.52;16.88;;;17.90;99.90;;;;;;21134983;28;20032;-51
2022/10/06 09:59:42;;;;;;;21.65;18.20;;;17.90;99.90;;;;;;21147694;28;20028;-50
2022/10/06 10:09:45;;;;;;;21.88;16.85;;;18.00;99.90;;;;;;21150191;28;20039;-48
2022/10/06 10:19:52;;;;;;;23.15;18.42;;;18.30;99.90;;;;;;21126254;28;20073;-51
2022/10/06 10:30:06;;;;;;;20.80;15.93;;;19.10;99.90;;;;;;21145452;28;20041;-51
2022/10/06 10:40:15;;;;;;;19.25;16.50;;;19.20;99.90;;;;;;21180501;27;20047;-49
2022/10/06 10:50:34;;;;;;;19.57;16.73;;;19.30;99.90;;;;;;21232093;27;20035;-49
2022/10/06 11:00:52;;;;;;;18.48;15.93;;;19.50;99.90;;;;;;21162126;27;20039;-51
2022/10/06 11:11:10;;;;;;;19.87;17.40;;;19.20;99.90;;;;;;21144985;28;20123;-52
2022/10/06 11:21:33;;;;;;;21.67;18.15;;;19.20;99.90;;;;;;21129271;28;20085;-59
2022/10/06 11:32:18;;;;;;;24.75;19.30;;;19.50;99.90;;;;;;21160027;28;20039;-53
2022/10/06 11:43:04;;;;;;;24.40;19.20;;;19.30;99.90;;;;;;21054264;28;20113;-49
2022/10/06 11:53:37;;;;;;;24.08;19.50;;;19.40;99.90;;;;;;21058495;28;20554;-50
2022/10/06 12:04:15;;;;;;;20.67;18.23;;;19.70;99.90;;;;;;21058825;28;20066;-59
2022/10/06 12:14:58;;;;;;;21.13;18.23;;;19.90;99.90;;;;;;21056792;28;20036;-49
2022/10/06 12:25:31;;;;;;;23.20;20.02;;;19.80;99.90;;;;;;21039329;28;20108;-50
2022/10/06 12:35:40;;;;;;;27.38;21.83;;;19.70;99.90;;;;;;21049344;28;20048;-50
2022/10/06 12:46:20;;;;;;;27.23;23.80;;;20.00;99.90;;;;;;21054736;28;20389;-52
2022/10/06 12:56:38;;;;;;;29.42;25.23;;;20.30;99.90;;;;;;21050905;28;20473;-59
2022/10/06 13:06:48;;;;;;;30.95;26.65;;;20.00;99.90;;;;;;21053466;28;20059;-58
2022/10/06 13:16:51;;;;;;;35.13;28.13;;;19.60;99.90;;;;;;21053222;28;20109;-59
2022/10/06 13:26:55;;;;;;;32.38;26.35;;;19.10;99.90;;;;;;21057154;28;20435;-50
2022/10/06 13:36:58;;;;;;;37.25;29.02;;;18.50;99.90;;;;;;21123258;27;20047;-55
2022/10/06 13:47:06;;;;;;;39.83;28.75;;;18.30;99.90;;;;;;21222533;27;20084;-57
2022/10/06 13:57:39;;;;;;;40.53;30.48;;;17.50;99.90;;;;;;21237062;27;20077;-47
2022/10/06 14:07:45;;;;;;;40.78;29.90;;;17.30;99.90;;;;;;21235375;27;20027;-58
2022/10/06 14:18:01;;;;;;;36.30;29.98;;;17.00;99.90;;;;;;21211683;27;20282;-52
2022/10/06 14:28:04;;;;;;;41.65;32.03;;;16.90;99.90;;;;;;21235207;27;20103;-52
2022/10/06 14:38:06;;;;;;;39.03;31.08;;;16.60;99.90;;;;;;21233884;27;20410;-51
2022/10/06 14:48:10;;;;;;;41.28;32.63;;;16.40;99.90;;;;;;21216404;27;20499;-55
2022/10/06 14:58:13;;;;;;;51.22;37.92;;;16.20;99.90;;;;;;21181843;27;20032;-49
2022/10/06 15:08:17;;;;;;;51.45;36.72;;;16.00;99.90;;;;;;21195811;27;20031;-51
2022/10/06 15:18:21;;;;;;;59.50;42.55;;;15.60;99.90;;;;;;21230799;27;20042;-57
2022/10/06 15:38:45;;;;;;;51.72;34.95;;;14.90;99.90;;;;;;21197138;27;20488;-51
2022/10/06 15:48:48;;;;;;;29.08;19.95;;;14.10;99.90;;;;;;21217762;27;20039;-49
2022/10/06 15:58:50;;;;;;;18.70;12.68;;;13.30;99.90;;;;;;21142549;28;20108;-56
2022/10/06 16:08:53;;;;;;;12.75;8.98;;;12.50;99.90;;;;;;21197425;27;20027;-49
2022/10/06 16:18:57;;;;;;;15.63;9.48;;;11.90;99.90;;;;;;21219051;27;20087;-49
2022/10/06 16:28:59;;;;;;;10.82;7.20;;;11.40;99.90;;;;;;21225303;27;20056;-50
2022/10/06 16:39:04;;;;;;;9.80;7.00;;;11.10;99.90;;;;;;21156704;27;20097;-55
2022/10/06 16:49:08;;;;;;;6.95;5.22;;;10.90;99.90;;;;;;21054312;28;20024;-48
2022/10/06 16:59:12;;;;;;;5.97;4.40;;;10.70;99.90;;;;;;21098706;28;20028;-54
2022/10/06 17:09:17;;;;;;;4.45;3.80;;;10.60;99.90;;;;;;21110353;28;20036;-47
2022/10/06 17:19:22;;;;;;;4.13;2.78;;;10.40;99.90;;;;;;21120715;28;20039;-46
2022/10/06 17:29:25;;;;;;;8.52;4.90;;;10.00;99.90;;;;;;21134231;28;20031;-47
2022/10/06 17:39:27;;;;;;;9.80;5.15;;;9.70;99.90;;;;;;21025229;28;20041;-52
2022/10/06 17:49:33;;;;;;;8.15;4.65;;;9.60;99.90;;;;;;20985771;28;20109;-50
2022/10/06 17:59:35;;;;;;;12.05;7.28;;;9.50;99.90;;;;;;21052358;28;20074;-51
2022/10/06 18:11:31;;;;;;;8.20;2.97;;;9.30;99.90;;;;;;21034928;28;20032;-48
2022/10/06 18:20:04;;;;;;;7.88;2.30;;;9.30;99.90;;;;;;21062093;28;20451;-50
2022/10/06 18:30:07;;;;;;;21.80;12.52;;;9.50;99.90;;;;;;21066215;28;20035;-49
2022/10/06 18:40:11;;;;;;;5.22;3.53;;;9.50;99.90;;;;;;21065188;28;20044;-50
2022/10/06 18:50:13;;;;;;;10.57;7.28;;;9.40;99.90;;;;;;21047220;28;20082;-52
2022/10/06 19:00:16;;;;;;;9.68;6.47;;;9.30;99.90;;;;;;21063313;28;20078;-50
2022/10/06 19:10:19;;;;;;;16.90;11.25;;;9.20;99.90;;;;;;21045533;28;20397;-49
2022/10/06 19:20:22;;;;;;;17.98;10.60;;;9.30;99.90;;;;;;21046338;28;20036;-48
2022/10/06 19:30:25;;;;;;;10.60;6.43;;;9.40;99.90;;;;;;21059814;28;20070;-50
2022/10/06 19:40:27;;;;;;;18.35;11.70;;;9.30;99.90;;;;;;21032422;28;20044;-52
2022/10/06 19:50:30;;;;;;;6.00;4.05;;;9.20;99.90;;;;;;21139073;28;20035;-54
2022/10/06 20:00:32;;;;;;;5.22;3.30;;;9.20;99.90;;;;;;21142803;28;20035;-51
2022/10/06 20:10:35;;;;;;;4.82;2.90;;;9.10;99.90;;;;;;21124483;28;20434;-50
2022/10/06 20:20:38;;;;;;;5.45;2.38;;;9.10;99.90;;;;;;21124253;28;20427;-48
2022/10/06 20:30:48;;;;;;;3.63;2.67;;;9.50;99.90;;;;;;21124376;28;20108;-47
2022/10/06 20:40:50;;;;;;;2.70;2.30;;;9.60;99.90;;;;;;21156151;28;20051;-54
2022/10/06 20:50:53;;;;;;;3.05;2.15;;;9.80;99.90;;;;;;21154850;27;20040;-50
2022/10/06 21:01:06;;;;;;;2.80;2.13;;;10.10;99.90;;;;;;21117389;27;20069;-50
2022/10/06 21:11:10;;;;;;;5.15;1.83;;;10.50;99.90;;;;;;21137806;28;20039;-48
2022/10/06 21:21:14;;;;;;;2.05;1.58;;;10.80;99.90;;;;;;21136602;28;20032;-52
2022/10/06 21:31:19;;;;;;;2.63;1.90;;;11.40;99.90;;;;;;21107852;28;20036;-51
2022/10/06 21:41:28;;;;;;;3.75;1.90;;;11.30;99.90;;;;;;21199836;28;20047;-49
2022/10/06 21:51:32;;;;;;;2.28;1.80;;;10.70;99.90;;;;;;21191664;27;20031;-50
2022/10/06 22:01:39;;;;;;;3.40;1.85;;;10.50;99.90;;;;;;21143425;28;20557;-54
2022/10/06 22:11:42;;;;;;;2.50;2.10;;;10.20;99.90;;;;;;21134547;28;20039;-48
2022/10/06 22:21:47;;;;;;;3.63;2.00;;;9.80;99.90;;;;;;21179209;27;20088;-52
2022/10/06 22:31:49;;;;;;;2.20;2.00;;;9.60;99.90;;;;;;21217026;27;20187;-51
2022/10/06 22:41:52;;;;;;;2.92;2.05;;;9.30;99.90;;;;;;21153885;28;20044;-55
2022/10/06 22:51:54;;;;;;;3.88;2.10;;;9.30;99.90;;;;;;21130266;28;20405;-48
2022/10/06 23:01:57;;;;;;;2.88;1.80;;;9.10;99.90;;;;;;21128302;28;20108;-51
2022/10/06 23:11:59;;;;;;;3.08;1.58;;;9.10;99.90;;;;;;21145305;28;20036;-49
2022/10/06 23:22:02;;;;;;;2.13;1.80;;;9.20;99.90;;;;;;21144683;28;20035;-48
2022/10/06 23:32:05;;;;;;;3.80;1.33;;;9.10;99.90;;;;;;21145670;28;20101;-49
2022/10/06 23:42:08;;;;;;;3.65;1.40;;;9.20;99.90;;;;;;21073198;28;20056;-53
2022/10/06 23:52:11;;;;;;;3.33;1.20;;;9.20;99.90;;;;;;21041500;28;20027;-50
